Kezdőlap
METAR-TAF:

METAR-TAF

Repülőterek :

Mitchell Municipal Airport

Mitchell, Dél-Dakota, Amerikai Egyesült Államok

földrajzi szélesség: 43-46N, földrajzi hosszúság: 098-02W, magasság: 397 m

Jelenlegi meteorológiai megfigyelések

A jelentés 1 órával és 6 perccel ezelõtt készült, 20:53 UTC
Északi szél 11 kt széllökések: 17 kt
Hőmérséklet 25°C
Páratartalom 41%
Légköri nyomás 1006 hPa
Látótávolság: 16.1 km
Szórványos felhőzet 5500 lábon
Szakadozott felhőzet 8000 lábon

METAR: KMHE 262053Z AUTO 01011G17KT 10SM SCT055 BKN080 25/11 A2970 RMK AO2 SLP054 T02500111 56002

Idő: 16:59 (21:59 UTC)


TAF: hiányzik

Meteorológiai megfigyelések és előrejelzések több, mint 4000 repülőtéren (METAR és TAF jelentéseket).

A térképen piros és sárga pontok jelzik az elérhető meteorológiai állomásokat.

Mozgassa az egeret a pont fölött, hogy megjelenjen az állomás neve.

Azután kattintson az időjárási megfigyelések és előrejelzések megtekintéséhez.

A térkép megváltoztatása: kattintson a fekete keresztel jelölt zöld gombra ráközelítéshez, a vonallal jelölt zöld gombra távolításhoz, vagy a zöld nyilakra a szomszédos térképek eléréséhez.


METAR-TAF: